createdAt,value
2024-03-08T00:00:49.576Z,996.95
2024-03-08T00:01:49.620Z,996.94
2024-03-08T00:02:49.622Z,996.92
2024-03-08T00:03:49.565Z,996.91
2024-03-08T00:04:49.579Z,996.88
2024-03-08T00:05:49.588Z,996.83
2024-03-08T00:06:49.549Z,996.91
2024-03-08T00:07:49.550Z,996.89
2024-03-08T00:08:49.609Z,996.87
2024-03-08T00:09:49.523Z,996.84
2024-03-08T00:10:49.555Z,996.88
2024-03-08T00:11:49.630Z,996.83
2024-03-08T00:12:49.520Z,996.87
2024-03-08T00:13:49.483Z,996.85
2024-03-08T00:14:49.568Z,996.82
2024-03-08T00:15:49.479Z,996.83
2024-03-08T00:16:49.514Z,996.84
2024-03-08T00:17:49.695Z,996.86
2024-03-08T00:18:49.596Z,996.77
2024-03-08T00:19:49.459Z,996.84
2024-03-08T00:20:49.519Z,996.82
2024-03-08T00:21:49.511Z,996.86
2024-03-08T00:22:49.463Z,996.79
2024-03-08T00:23:49.494Z,996.81
2024-03-08T00:24:49.428Z,996.81
2024-03-08T00:25:49.443Z,996.78
2024-03-08T00:26:49.439Z,996.82
2024-03-08T00:27:49.427Z,996.82
2024-03-08T00:28:49.415Z,996.78
2024-03-08T00:29:49.525Z,996.81
2024-03-08T00:30:49.412Z,996.74
2024-03-08T00:31:49.380Z,996.73
2024-03-08T00:32:49.458Z,996.79
2024-03-08T00:33:49.476Z,996.77
2024-03-08T00:34:50.063Z,996.73
2024-03-08T00:35:49.418Z,996.75
2024-03-08T00:36:49.354Z,996.75
2024-03-08T00:37:49.366Z,996.71
2024-03-08T00:38:49.412Z,996.69
2024-03-08T00:39:49.326Z,996.73
2024-03-08T00:40:49.355Z,996.69
2024-03-08T00:41:49.333Z,996.75
2024-03-08T00:42:49.332Z,996.70
2024-03-08T00:43:49.317Z,996.66
2024-03-08T00:44:49.429Z,996.65
2024-03-08T00:45:49.289Z,996.65
2024-03-08T00:46:51.030Z,996.67
2024-03-08T00:47:49.320Z,996.63
2024-03-08T00:48:49.338Z,996.65
2024-03-08T00:49:49.279Z,996.54
2024-03-08T00:50:49.343Z,996.57
2024-03-08T00:51:49.355Z,996.57
2024-03-08T00:52:49.259Z,996.59
2024-03-08T00:53:49.273Z,996.56
2024-03-08T00:54:49.229Z,996.55
2024-03-08T00:55:49.224Z,996.55
2024-03-08T00:56:49.257Z,996.47
2024-03-08T00:57:49.214Z,996.55
2024-03-08T00:58:49.200Z,996.46
2024-03-08T00:59:49.240Z,996.49
2024-03-08T01:00:49.225Z,996.40
2024-03-08T01:01:49.180Z,996.46
2024-03-08T01:02:49.207Z,996.35
2024-03-08T01:03:49.164Z,996.40
2024-03-08T01:04:49.176Z,996.49
2024-03-08T01:05:49.170Z,996.38
2024-03-08T01:06:49.138Z,996.40
2024-03-08T01:07:49.141Z,996.39
2024-03-08T01:08:49.146Z,996.44
2024-03-08T01:09:49.147Z,996.43
2024-03-08T01:10:49.154Z,996.36
2024-03-08T01:11:49.134Z,996.32
2024-03-08T01:12:49.111Z,996.33
2024-03-08T01:13:49.099Z,996.35
2024-03-08T01:14:49.129Z,996.37
2024-03-08T01:15:49.114Z,996.31
2024-03-08T01:16:49.106Z,996.25
2024-03-08T01:17:49.185Z,996.25
2024-03-08T01:18:49.206Z,996.30
2024-03-08T01:19:49.062Z,996.24
2024-03-08T01:20:49.082Z,996.27
2024-03-08T01:21:50.058Z,996.31
2024-03-08T01:22:49.085Z,996.27
2024-03-08T01:23:49.130Z,996.26
2024-03-08T01:24:49.029Z,996.28
2024-03-08T01:25:49.024Z,996.29
2024-03-08T01:26:49.177Z,996.23
2024-03-08T01:27:49.048Z,996.18
2024-03-08T01:28:49.007Z,996.22
2024-03-08T01:29:49.112Z,996.21
2024-03-08T01:30:49.000Z,996.19
2024-03-08T01:31:48.981Z,996.15
2024-03-08T01:32:49.133Z,996.17
2024-03-08T01:33:49.086Z,996.12
2024-03-08T01:34:48.970Z,996.10
2024-03-08T01:35:49.000Z,996.13
2024-03-08T01:36:49.974Z,996.13
2024-03-08T01:37:48.972Z,996.09
2024-03-08T01:38:48.981Z,996.03
2024-03-08T01:39:48.937Z,996.12
2024-03-08T01:40:48.927Z,996.04
2024-03-08T01:41:48.963Z,996.10
2024-03-08T01:42:48.923Z,996.05
2024-03-08T01:43:49.142Z,996.03
2024-03-08T01:44:48.962Z,996.06
2024-03-08T01:45:48.919Z,996.02
2024-03-08T01:46:48.900Z,995.98
2024-03-08T01:47:48.972Z,995.99
2024-03-08T01:48:49.349Z,995.94
2024-03-08T01:49:48.882Z,996.01
2024-03-08T01:50:48.939Z,995.93
2024-03-08T01:51:48.880Z,995.91
2024-03-08T01:52:48.918Z,995.89
2024-03-08T01:53:49.011Z,995.90
2024-03-08T01:54:48.847Z,995.87
2024-03-08T01:55:48.835Z,995.86
2024-03-08T01:56:48.859Z,995.79
2024-03-08T01:57:48.826Z,995.81
2024-03-08T01:58:48.902Z,995.80
2024-03-08T01:59:48.819Z,995.75
2024-03-08T02:00:48.839Z,995.78
2024-03-08T02:01:48.799Z,995.75
2024-03-08T02:02:48.852Z,995.74
2024-03-08T02:03:48.895Z,995.67
2024-03-08T02:04:48.779Z,995.69
2024-03-08T02:05:48.836Z,995.68
2024-03-08T02:06:48.766Z,995.59
2024-03-08T02:07:48.762Z,995.71
2024-03-08T02:08:48.797Z,995.63
2024-03-08T02:09:48.763Z,995.62
2024-03-08T02:10:48.816Z,995.61
2024-03-08T02:11:48.759Z,995.58
2024-03-08T02:12:48.740Z,995.56
2024-03-08T02:13:48.728Z,995.59
2024-03-08T02:14:48.753Z,995.59
2024-03-08T02:15:48.734Z,995.56
2024-03-08T02:16:48.709Z,995.58
2024-03-08T02:17:48.744Z,995.65
2024-03-08T02:18:48.752Z,995.62
2024-03-08T02:19:48.712Z,995.55
2024-03-08T02:20:48.718Z,995.58
2024-03-08T02:21:48.677Z,995.58
2024-03-08T02:22:48.663Z,995.57
2024-03-08T02:23:48.704Z,995.54
2024-03-08T02:24:48.684Z,995.55
2024-03-08T02:25:48.680Z,995.56
2024-03-08T02:26:48.689Z,995.51
2024-03-08T02:27:48.640Z,995.52
2024-03-08T02:28:48.631Z,995.49
2024-03-08T02:29:48.719Z,995.50
2024-03-08T02:30:48.634Z,995.53
2024-03-08T02:31:48.613Z,995.52
2024-03-08T02:32:48.638Z,995.49
2024-03-08T02:33:48.756Z,995.42
2024-03-08T02:34:48.598Z,995.46
2024-03-08T02:35:48.746Z,995.43
2024-03-08T02:36:48.586Z,995.43
2024-03-08T02:37:48.579Z,995.39
2024-03-08T02:38:48.595Z,995.39
2024-03-08T02:39:48.575Z,995.42
2024-03-08T02:40:48.579Z,995.37
2024-03-08T02:41:48.569Z,995.35
2024-03-08T02:42:48.545Z,995.37
2024-03-08T02:43:48.546Z,995.33
2024-03-08T02:44:48.553Z,995.37
2024-03-08T02:45:48.534Z,995.31
2024-03-08T02:46:48.517Z,995.39
2024-03-08T02:47:48.575Z,995.33
2024-03-08T02:48:48.626Z,995.32
2024-03-08T02:49:48.506Z,995.31
2024-03-08T02:50:48.555Z,995.30
2024-03-08T02:51:48.486Z,995.30
2024-03-08T02:52:48.476Z,995.35
2024-03-08T02:53:48.498Z,995.29
2024-03-08T02:54:48.469Z,995.31
2024-03-08T02:55:48.497Z,995.27
2024-03-08T02:56:48.484Z,995.28
2024-03-08T02:57:48.606Z,995.29
2024-03-08T02:58:48.434Z,995.29
2024-03-08T02:59:48.432Z,995.29
2024-03-08T03:00:48.586Z,995.29
2024-03-08T03:01:48.693Z,995.25
2024-03-08T03:02:48.472Z,995.23
2024-03-08T03:03:48.756Z,995.22
2024-03-08T03:04:48.414Z,995.23
2024-03-08T03:05:49.612Z,995.19
2024-03-08T03:06:48.401Z,995.20
2024-03-08T03:07:48.383Z,995.21
2024-03-08T03:08:48.394Z,995.18
2024-03-08T03:09:48.369Z,995.15
2024-03-08T03:10:48.385Z,995.15
2024-03-08T03:11:48.372Z,995.11
2024-03-08T03:12:48.354Z,995.13
2024-03-08T03:13:48.345Z,995.17
2024-03-08T03:14:48.454Z,995.15
2024-03-08T03:15:48.361Z,995.13
2024-03-08T03:16:48.355Z,995.13
2024-03-08T03:17:48.367Z,995.13
2024-03-08T03:18:48.531Z,995.08
2024-03-08T03:19:48.325Z,995.09
2024-03-08T03:20:48.366Z,995.13
2024-03-08T03:21:48.636Z,995.05
2024-03-08T03:22:48.304Z,995.06
2024-03-08T03:23:48.304Z,995.02
2024-03-08T03:24:48.269Z,995.13
2024-03-08T03:25:48.277Z,995.06
2024-03-08T03:26:48.310Z,995.01
2024-03-08T03:27:48.280Z,995.06
2024-03-08T03:28:48.251Z,995.09
2024-03-08T03:29:48.272Z,995.05
2024-03-08T03:30:48.487Z,995.04
2024-03-08T03:31:48.235Z,995.08
2024-03-08T03:32:48.439Z,994.99
2024-03-08T03:33:48.340Z,995.05
2024-03-08T03:34:48.238Z,995.04
2024-03-08T03:35:48.273Z,995.05
2024-03-08T03:36:48.219Z,995.10
2024-03-08T03:37:48.195Z,995.04
2024-03-08T03:38:48.238Z,995.05
2024-03-08T03:39:48.185Z,995.09
2024-03-08T03:40:48.179Z,994.98
2024-03-08T03:41:48.209Z,995.02
2024-03-08T03:42:48.176Z,995.03
2024-03-08T03:43:48.154Z,994.99
2024-03-08T03:44:48.214Z,994.95
2024-03-08T03:45:48.174Z,994.99
2024-03-08T03:46:48.144Z,994.99
2024-03-08T03:47:48.212Z,995.00
2024-03-08T03:48:48.319Z,995.01
2024-03-08T03:49:48.131Z,994.93
2024-03-08T03:50:48.138Z,994.88
2024-03-08T03:51:48.112Z,994.91
2024-03-08T03:52:48.109Z,994.91
2024-03-08T03:53:48.142Z,994.92
2024-03-08T03:54:48.110Z,994.89
2024-03-08T03:55:48.097Z,994.85
2024-03-08T03:56:48.110Z,994.88
2024-03-08T03:57:48.074Z,994.88
2024-03-08T03:58:48.088Z,994.89
2024-03-08T03:59:48.093Z,994.90
2024-03-08T04:00:48.079Z,994.86
2024-03-08T04:01:48.108Z,994.84
2024-03-08T04:02:48.064Z,994.82
2024-03-08T04:03:49.042Z,994.91
2024-03-08T04:04:48.125Z,994.83
2024-03-08T04:05:48.085Z,994.85
2024-03-08T04:06:48.016Z,994.82
2024-03-08T04:07:48.024Z,994.77
2024-03-08T04:08:48.019Z,994.83
2024-03-08T04:09:48.002Z,994.75
2024-03-08T04:10:47.991Z,994.83
2024-03-08T04:11:48.166Z,994.79
2024-03-08T04:12:47.981Z,994.82
2024-03-08T04:13:47.970Z,994.81
2024-03-08T04:14:48.055Z,994.83
2024-03-08T04:15:50.161Z,994.82
2024-03-08T04:16:48.988Z,994.78
2024-03-08T04:17:48.083Z,994.79
2024-03-08T04:18:48.007Z,994.75
2024-03-08T04:19:47.930Z,994.81
2024-03-08T04:20:47.967Z,994.71
2024-03-08T04:21:47.929Z,994.70
2024-03-08T04:22:47.927Z,994.72
2024-03-08T04:23:47.945Z,994.72
2024-03-08T04:24:47.889Z,994.75
2024-03-08T04:25:48.901Z,994.73
2024-03-08T04:26:47.954Z,994.68
2024-03-08T04:27:47.897Z,994.64
2024-03-08T04:28:47.902Z,994.69
2024-03-08T04:29:47.956Z,994.72
2024-03-08T04:30:47.865Z,994.70
2024-03-08T04:31:47.848Z,994.69
2024-03-08T04:32:47.964Z,994.66
2024-03-08T04:33:48.002Z,994.70
2024-03-08T04:34:47.857Z,994.67
2024-03-08T04:35:47.860Z,994.66
2024-03-08T04:36:47.824Z,994.63
2024-03-08T04:37:47.829Z,994.62
2024-03-08T04:38:47.847Z,994.63
2024-03-08T04:39:47.812Z,994.62
2024-03-08T04:40:47.806Z,994.66
2024-03-08T04:41:47.828Z,994.61
2024-03-08T04:42:47.791Z,994.60
2024-03-08T04:43:47.786Z,994.61
2024-03-08T04:44:47.791Z,994.57
2024-03-08T04:45:47.799Z,994.58
2024-03-08T04:46:47.777Z,994.58
2024-03-08T04:47:47.883Z,994.50
2024-03-08T04:48:47.832Z,994.55
2024-03-08T04:49:47.732Z,994.55
2024-03-08T04:50:47.761Z,994.51
2024-03-08T04:51:47.729Z,994.56
2024-03-08T04:52:47.726Z,994.56
2024-03-08T04:53:47.758Z,994.53
2024-03-08T04:54:47.726Z,994.54
2024-03-08T04:55:47.694Z,994.54
2024-03-08T04:56:47.699Z,994.52
2024-03-08T04:57:47.697Z,994.51
2024-03-08T04:58:47.689Z,994.51
2024-03-08T04:59:47.788Z,994.49
2024-03-08T05:00:47.702Z,994.44
2024-03-08T05:01:47.662Z,994.43
2024-03-08T05:02:47.772Z,994.43
2024-03-08T05:03:47.640Z,994.47
2024-03-08T05:04:47.662Z,994.41
2024-03-08T05:05:47.697Z,994.50
2024-03-08T05:06:47.621Z,994.42
2024-03-08T05:07:47.618Z,994.46
2024-03-08T05:08:47.672Z,994.45
2024-03-08T05:09:47.606Z,994.44
2024-03-08T05:10:47.679Z,994.40
2024-03-08T05:11:47.668Z,994.47
2024-03-08T05:12:47.595Z,994.47
2024-03-08T05:13:47.607Z,994.42
2024-03-08T05:14:47.639Z,994.43
2024-03-08T05:15:47.565Z,994.44
2024-03-08T05:16:47.558Z,994.44
2024-03-08T05:17:47.632Z,994.39
2024-03-08T05:18:47.634Z,994.43
2024-03-08T05:19:47.547Z,994.48
2024-03-08T05:20:47.582Z,994.43
2024-03-08T05:21:47.556Z,994.42
2024-03-08T05:22:47.554Z,994.44
2024-03-08T05:23:47.555Z,994.42
2024-03-08T05:24:47.526Z,994.52
2024-03-08T05:25:47.508Z,994.45
2024-03-08T05:26:47.878Z,994.42
2024-03-08T05:27:47.494Z,994.52
2024-03-08T05:28:47.477Z,994.46
2024-03-08T05:29:47.593Z,994.48
2024-03-08T05:30:47.480Z,994.53
2024-03-08T05:31:47.461Z,994.41
2024-03-08T05:32:47.528Z,994.40
2024-03-08T05:33:47.548Z,994.43
2024-03-08T05:34:47.454Z,994.44
2024-03-08T05:35:47.464Z,994.41
2024-03-08T05:36:47.456Z,994.42
2024-03-08T05:37:47.444Z,994.40
2024-03-08T05:38:47.453Z,994.37
2024-03-08T05:39:47.413Z,994.48
2024-03-08T05:40:47.424Z,994.40
2024-03-08T05:41:47.445Z,994.43
2024-03-08T05:42:47.400Z,994.41
2024-03-08T05:43:47.403Z,994.36
2024-03-08T05:44:47.418Z,994.36
2024-03-08T05:45:47.398Z,994.41
2024-03-08T05:46:48.076Z,994.36
2024-03-08T05:47:47.486Z,994.35
2024-03-08T05:48:47.405Z,994.37
2024-03-08T05:49:47.382Z,994.39
2024-03-08T05:50:47.408Z,994.36
2024-03-08T05:51:47.336Z,994.39
2024-03-08T05:52:47.354Z,994.43
2024-03-08T05:53:47.350Z,994.40
2024-03-08T05:54:47.349Z,994.45
2024-03-08T05:55:47.337Z,994.38
2024-03-08T05:56:47.391Z,994.37
2024-03-08T05:57:47.300Z,994.44
2024-03-08T05:58:47.288Z,994.41
2024-03-08T05:59:47.322Z,994.38
2024-03-08T06:00:49.195Z,994.43
2024-03-08T06:01:47.321Z,994.44
2024-03-08T06:02:47.300Z,994.45
2024-03-08T06:03:47.255Z,994.47
2024-03-08T06:04:47.252Z,994.45
2024-03-08T06:05:47.292Z,994.42
2024-03-08T06:06:49.600Z,994.47
2024-03-08T06:07:47.251Z,994.47
2024-03-08T06:08:47.254Z,994.43
2024-03-08T06:09:47.228Z,994.43
2024-03-08T06:10:47.325Z,994.40
2024-03-08T06:11:47.270Z,994.42
2024-03-08T06:12:47.255Z,994.42
2024-03-08T06:13:47.208Z,994.40
2024-03-08T06:14:47.267Z,994.48
2024-03-08T06:15:47.207Z,994.45
2024-03-08T06:16:47.179Z,994.44
2024-03-08T06:17:47.237Z,994.47
2024-03-08T06:18:47.226Z,994.45
2024-03-08T06:19:47.193Z,994.41
2024-03-08T06:20:48.197Z,994.42
2024-03-08T06:21:47.153Z,994.44
2024-03-08T06:22:47.154Z,994.47
2024-03-08T06:23:47.168Z,994.39
2024-03-08T06:24:47.940Z,994.50
2024-03-08T06:25:47.137Z,994.47
2024-03-08T06:26:47.168Z,994.44
2024-03-08T06:27:47.117Z,994.48
2024-03-08T06:28:47.136Z,994.41
2024-03-08T06:29:47.181Z,994.44
2024-03-08T06:30:47.114Z,994.44
2024-03-08T06:31:47.100Z,994.45
2024-03-08T06:32:47.234Z,994.40
2024-03-08T06:33:47.272Z,994.41
2024-03-08T06:34:47.091Z,994.38
2024-03-08T06:35:47.097Z,994.40
2024-03-08T06:36:47.241Z,994.33
2024-03-08T06:37:47.053Z,994.37
2024-03-08T06:38:47.233Z,994.34
2024-03-08T06:39:47.058Z,994.32
2024-03-08T06:40:47.042Z,994.34
2024-03-08T06:41:47.059Z,994.35
2024-03-08T06:42:47.051Z,994.28
2024-03-08T06:43:47.051Z,994.34
2024-03-08T06:44:47.046Z,994.33
2024-03-08T06:45:47.006Z,994.30
2024-03-08T06:46:47.011Z,994.33
2024-03-08T06:47:47.072Z,994.28
2024-03-08T06:48:47.287Z,994.35
2024-03-08T06:49:47.018Z,994.32
2024-03-08T06:50:47.121Z,994.33
2024-03-08T06:51:47.019Z,994.38
2024-03-08T06:52:46.979Z,994.39
2024-03-08T06:53:47.152Z,994.36
2024-03-08T06:54:46.975Z,994.31
2024-03-08T06:55:47.036Z,994.31
2024-03-08T06:56:46.973Z,994.29
2024-03-08T06:57:46.941Z,994.40
2024-03-08T06:58:46.939Z,994.34
2024-03-08T06:59:46.945Z,994.44
2024-03-08T07:00:46.988Z,994.35
2024-03-08T07:01:47.083Z,994.27
2024-03-08T07:02:47.049Z,994.27
2024-03-08T07:03:46.911Z,994.35
2024-03-08T07:04:46.938Z,994.28
2024-03-08T07:05:46.983Z,994.24
2024-03-08T07:06:46.880Z,994.29
2024-03-08T07:07:46.896Z,994.35
2024-03-08T07:08:46.943Z,994.32
2024-03-08T07:09:47.000Z,994.24
2024-03-08T07:10:48.538Z,994.30
2024-03-08T07:11:47.075Z,994.34
2024-03-08T07:12:46.930Z,994.24
2024-03-08T07:13:46.884Z,994.25
2024-03-08T07:14:46.957Z,994.25
2024-03-08T07:15:46.895Z,994.24
2024-03-08T07:16:46.899Z,994.26
2024-03-08T07:17:46.852Z,994.19
2024-03-08T07:18:46.921Z,994.14
2024-03-08T07:19:47.430Z,994.18
2024-03-08T07:20:46.836Z,994.13
2024-03-08T07:21:46.794Z,994.15
2024-03-08T07:22:49.110Z,994.17
2024-03-08T07:23:46.798Z,994.16
2024-03-08T07:24:46.762Z,994.19
2024-03-08T07:25:46.761Z,994.15
2024-03-08T07:26:46.837Z,994.05
2024-03-08T07:27:46.757Z,994.07
2024-03-08T07:28:46.731Z,994.04
2024-03-08T07:29:46.768Z,994.07
2024-03-08T07:30:46.944Z,994.05
2024-03-08T07:31:46.726Z,994.05
2024-03-08T07:32:46.757Z,993.99
2024-03-08T07:33:46.942Z,993.98
2024-03-08T07:34:46.701Z,993.97
2024-03-08T07:35:46.817Z,993.97
2024-03-08T07:36:46.836Z,993.96
2024-03-08T07:37:46.710Z,993.91
2024-03-08T07:38:46.685Z,993.95
2024-03-08T07:39:46.674Z,993.90
2024-03-08T07:40:46.848Z,993.94
2024-03-08T07:41:46.720Z,993.92
2024-03-08T07:42:46.656Z,993.90
2024-03-08T07:43:46.656Z,993.84
2024-03-08T07:44:46.708Z,993.87
2024-03-08T07:45:46.630Z,993.83
2024-03-08T07:46:46.658Z,993.77
2024-03-08T07:47:46.740Z,993.83
2024-03-08T07:48:46.846Z,993.77
2024-03-08T07:49:46.598Z,993.79
2024-03-08T07:50:46.605Z,993.72
2024-03-08T07:51:46.587Z,993.73
2024-03-08T07:52:47.415Z,993.73
2024-03-08T07:53:46.618Z,993.78
2024-03-08T07:54:46.618Z,993.71
2024-03-08T07:55:46.557Z,993.76
2024-03-08T07:56:46.549Z,993.69
2024-03-08T07:57:46.554Z,993.70
2024-03-08T07:58:46.607Z,993.69
2024-03-08T07:59:46.525Z,993.68
2024-03-08T08:00:46.532Z,993.61
2024-03-08T08:01:46.593Z,993.60
2024-03-08T08:02:46.518Z,993.60
2024-03-08T08:03:46.508Z,993.58
2024-03-08T08:04:46.700Z,993.59
2024-03-08T08:05:46.489Z,993.56
2024-03-08T08:06:46.505Z,993.57
2024-03-08T08:07:47.594Z,993.54
2024-03-08T08:08:46.599Z,993.56
2024-03-08T08:09:46.467Z,993.56
2024-03-08T08:10:46.522Z,993.48
2024-03-08T08:11:46.497Z,993.52
2024-03-08T08:12:46.454Z,993.47
2024-03-08T08:13:46.480Z,993.48
2024-03-08T08:14:46.440Z,993.40
2024-03-08T08:15:46.440Z,993.43
2024-03-08T08:16:46.486Z,993.41
2024-03-08T08:17:46.477Z,993.35
2024-03-08T08:18:46.441Z,993.34
2024-03-08T08:19:46.457Z,993.30
2024-03-08T08:20:46.434Z,993.35
2024-03-08T08:21:46.390Z,993.38
2024-03-08T08:22:46.758Z,993.23
2024-03-08T08:23:46.385Z,993.22
2024-03-08T08:24:46.859Z,993.25
2024-03-08T08:25:46.384Z,993.20
2024-03-08T08:26:46.352Z,993.19
2024-03-08T08:27:46.428Z,993.26
2024-03-08T08:28:46.882Z,993.25
2024-03-08T08:29:46.337Z,993.18
2024-03-08T08:30:46.354Z,993.19
2024-03-08T08:31:46.347Z,993.16
2024-03-08T08:32:46.373Z,993.12
2024-03-08T08:33:48.861Z,993.22
2024-03-08T08:34:46.412Z,993.20
2024-03-08T08:35:46.311Z,993.17
2024-03-08T08:36:46.376Z,993.18
2024-03-08T08:37:46.314Z,993.15
2024-03-08T08:38:47.816Z,993.16
2024-03-08T08:39:47.276Z,993.04
2024-03-08T08:40:46.316Z,993.07
2024-03-08T08:41:46.348Z,993.12
2024-03-08T08:42:47.100Z,993.04
2024-03-08T08:43:54.606Z,993.05
2024-03-08T08:44:48.247Z,993.00
2024-03-08T08:45:46.235Z,992.92
2024-03-08T08:46:46.267Z,992.99
2024-03-08T08:47:46.684Z,992.96
2024-03-08T08:48:46.194Z,992.89
2024-03-08T08:49:46.235Z,992.85
2024-03-08T08:50:46.205Z,992.85
2024-03-08T08:51:46.161Z,992.88
2024-03-08T08:52:46.173Z,992.83
2024-03-08T08:53:46.171Z,992.86
2024-03-08T08:54:48.910Z,992.76
2024-03-08T08:55:46.172Z,992.75
2024-03-08T08:56:46.157Z,992.75
2024-03-08T08:57:46.130Z,992.72
2024-03-08T08:58:46.163Z,992.66
2024-03-08T08:59:46.117Z,992.65
2024-03-08T09:00:46.114Z,992.71
2024-03-08T09:01:46.168Z,992.65
2024-03-08T09:02:46.119Z,992.66
2024-03-08T09:03:46.098Z,992.63
2024-03-08T09:04:46.176Z,992.59
2024-03-08T09:05:46.423Z,992.62
2024-03-08T09:06:47.123Z,992.53
2024-03-08T09:07:46.312Z,992.59
2024-03-08T09:08:46.070Z,992.55
2024-03-08T09:09:46.053Z,992.55
2024-03-08T09:10:47.617Z,992.61
2024-03-08T09:11:46.186Z,992.50
2024-03-08T09:12:46.158Z,992.50
2024-03-08T09:13:46.098Z,992.51
2024-03-08T09:14:46.023Z,992.43
2024-03-08T09:15:46.020Z,992.44
2024-03-08T09:16:46.126Z,992.44
2024-03-08T09:17:46.040Z,992.42
2024-03-08T09:18:45.999Z,992.38
2024-03-08T09:19:46.032Z,992.35
2024-03-08T09:20:45.982Z,992.35
2024-03-08T09:21:45.971Z,992.40
2024-03-08T09:22:46.111Z,992.31
2024-03-08T09:23:46.010Z,992.28
2024-03-08T09:24:45.966Z,992.31
2024-03-08T09:25:47.694Z,992.21
2024-03-08T09:26:46.947Z,992.24
2024-03-08T09:27:45.947Z,992.20
2024-03-08T09:28:45.992Z,992.27
2024-03-08T09:29:45.936Z,992.24
2024-03-08T09:30:54.044Z,992.16
2024-03-08T09:31:47.965Z,992.22
2024-03-08T09:32:45.928Z,992.15
2024-03-08T09:33:45.906Z,992.11
2024-03-08T09:34:45.914Z,992.08
2024-03-08T09:35:45.886Z,992.03
2024-03-08T09:36:45.883Z,992.03
2024-03-08T09:37:45.927Z,992.05
2024-03-08T09:38:45.874Z,991.99
2024-03-08T09:39:45.879Z,991.98
2024-03-08T09:40:45.855Z,991.92
2024-03-08T09:41:45.850Z,991.94
2024-03-08T09:42:45.850Z,991.92
2024-03-08T09:43:45.961Z,991.94
2024-03-08T09:44:45.844Z,991.88
2024-03-08T09:45:45.828Z,991.88
2024-03-08T09:46:46.838Z,991.80
2024-03-08T09:47:45.831Z,991.79
2024-03-08T09:48:45.944Z,991.77
2024-03-08T09:49:45.844Z,991.74
2024-03-08T09:50:45.800Z,991.79
2024-03-08T09:51:45.789Z,991.77
2024-03-08T09:52:45.798Z,991.73
2024-03-08T09:53:45.779Z,991.75
2024-03-08T09:54:45.775Z,991.63
2024-03-08T09:55:45.891Z,991.63
2024-03-08T09:56:45.842Z,991.63
2024-03-08T09:57:45.785Z,991.45
2024-03-08T09:58:45.786Z,991.57
2024-03-08T09:59:45.739Z,991.58
2024-03-08T10:00:46.779Z,991.49
2024-03-08T10:01:45.854Z,991.54
2024-03-08T10:02:45.739Z,991.50
2024-03-08T10:03:45.719Z,991.52
2024-03-08T10:04:45.720Z,991.54
2024-03-08T10:05:45.802Z,991.48
2024-03-08T10:06:45.730Z,991.11
2024-03-08T10:07:45.719Z,991.36
2024-03-08T10:08:46.304Z,991.39
2024-03-08T10:09:46.688Z,991.31
2024-03-08T10:10:45.774Z,991.36
2024-03-08T10:11:45.732Z,991.29
2024-03-08T10:12:45.679Z,991.28
2024-03-08T10:13:45.662Z,991.25
2024-03-08T10:14:45.663Z,991.20
2024-03-08T10:15:45.660Z,991.17
2024-03-08T10:16:45.670Z,991.11
2024-03-08T10:17:45.735Z,991.23
2024-03-08T10:18:45.640Z,991.31
2024-03-08T10:19:45.648Z,991.12
2024-03-08T10:20:45.615Z,991.13
2024-03-08T10:21:45.623Z,991.27
2024-03-08T10:22:54.344Z,991.21
2024-03-08T10:23:47.625Z,991.10
2024-03-08T10:24:45.590Z,991.13
2024-03-08T10:25:45.620Z,990.87
2024-03-08T10:26:45.618Z,991.00
2024-03-08T10:27:46.454Z,991.00
2024-03-08T10:28:45.689Z,990.77
2024-03-08T10:29:45.590Z,991.01
2024-03-08T10:30:45.561Z,990.76
2024-03-08T10:31:45.590Z,990.97
2024-03-08T10:32:45.557Z,990.83
2024-03-08T10:33:45.557Z,990.96
2024-03-08T10:34:45.722Z,990.97
2024-03-08T10:35:45.564Z,990.92
2024-03-08T10:36:45.571Z,990.95
2024-03-08T10:37:45.603Z,990.74
2024-03-08T10:38:45.527Z,990.84
2024-03-08T10:39:45.527Z,991.02
2024-03-08T10:40:45.522Z,990.95
2024-03-08T10:41:45.478Z,990.98
2024-03-08T10:42:45.473Z,990.84
2024-03-08T10:43:47.640Z,990.67
2024-03-08T10:44:46.320Z,990.94
2024-03-08T10:45:45.462Z,991.01
2024-03-08T10:46:45.458Z,990.67
2024-03-08T10:47:45.496Z,990.63
2024-03-08T10:48:45.444Z,990.78
2024-03-08T10:49:45.473Z,991.00
2024-03-08T10:50:45.416Z,990.93
2024-03-08T10:51:45.417Z,990.74
2024-03-08T10:52:45.480Z,990.98
2024-03-08T10:53:46.397Z,991.02
2024-03-08T10:54:45.540Z,990.95
2024-03-08T10:55:45.412Z,990.97
2024-03-08T10:56:45.380Z,990.65
2024-03-08T10:57:45.369Z,990.99
2024-03-08T10:58:45.434Z,990.85
2024-03-08T10:59:45.385Z,990.65
2024-03-08T11:00:45.358Z,990.62
2024-03-08T11:01:46.408Z,990.51
2024-03-08T11:02:45.359Z,990.54
2024-03-08T11:03:45.419Z,990.77
2024-03-08T11:04:46.375Z,990.55
2024-03-08T11:05:47.501Z,990.55
2024-03-08T11:06:45.346Z,990.50
2024-03-08T11:07:45.340Z,990.53
2024-03-08T11:08:45.322Z,990.78
2024-03-08T11:09:45.320Z,990.59
2024-03-08T11:10:45.432Z,990.64
2024-03-08T11:11:45.359Z,990.54
2024-03-08T11:12:45.297Z,990.71
2024-03-08T11:13:45.349Z,990.67
2024-03-08T11:14:45.267Z,990.38
2024-03-08T11:15:45.295Z,990.58
2024-03-08T11:16:45.344Z,990.51
2024-03-08T11:17:45.308Z,990.30
2024-03-08T11:18:45.325Z,990.38
2024-03-08T11:19:45.259Z,990.60
2024-03-08T11:20:45.247Z,990.52
2024-03-08T11:21:45.231Z,990.33
2024-03-08T11:22:45.241Z,990.54
2024-03-08T11:23:45.217Z,990.58
2024-03-08T11:24:45.229Z,990.53
2024-03-08T11:25:45.260Z,990.53
2024-03-08T11:26:45.195Z,990.44
2024-03-08T11:27:45.185Z,990.35
2024-03-08T11:28:45.228Z,990.46
2024-03-08T11:29:45.203Z,990.24
2024-03-08T11:30:45.189Z,990.19
2024-03-08T11:31:45.309Z,990.18
2024-03-08T11:32:45.163Z,990.17
2024-03-08T11:33:45.253Z,990.49
2024-03-08T11:34:45.305Z,990.25
2024-03-08T11:35:45.157Z,990.16
2024-03-08T11:36:45.134Z,990.20
2024-03-08T11:37:45.198Z,990.16
2024-03-08T11:38:45.189Z,990.26
2024-03-08T11:39:46.098Z,990.30
2024-03-08T11:40:45.150Z,990.31
2024-03-08T11:41:45.106Z,990.20
2024-03-08T11:42:45.076Z,990.29
2024-03-08T11:43:45.137Z,990.27
2024-03-08T11:44:45.060Z,990.18
2024-03-08T11:45:45.060Z,990.26
2024-03-08T11:46:45.091Z,990.02
2024-03-08T11:47:45.217Z,990.11
2024-03-08T11:48:45.126Z,990.14
2024-03-08T11:49:45.072Z,990.30
2024-03-08T11:50:45.022Z,990.15
2024-03-08T11:51:45.027Z,990.24
2024-03-08T11:52:45.057Z,990.15
2024-03-08T11:53:47.923Z,990.15
2024-03-08T11:54:46.005Z,990.28
2024-03-08T11:55:45.033Z,990.18
2024-03-08T11:56:44.988Z,990.11
2024-03-08T11:57:45.148Z,990.06
2024-03-08T11:58:44.994Z,989.93
2024-03-08T11:59:44.973Z,990.05
2024-03-08T12:00:44.970Z,990.03
2024-03-08T12:01:44.963Z,990.07
2024-03-08T12:02:45.052Z,990.04
2024-03-08T12:03:44.966Z,990.03
2024-03-08T12:04:44.988Z,990.06
2024-03-08T12:05:44.928Z,990.12
2024-03-08T12:06:44.921Z,989.90
2024-03-08T12:07:44.980Z,989.89
2024-03-08T12:08:44.903Z,989.86
2024-03-08T12:09:44.913Z,989.86
2024-03-08T12:10:44.982Z,989.79
2024-03-08T12:11:45.004Z,989.85
2024-03-08T12:12:45.089Z,989.79
2024-03-08T12:13:45.015Z,989.92
2024-03-08T12:14:44.996Z,989.89
2024-03-08T12:15:44.876Z,989.88
2024-03-08T12:16:44.970Z,989.82
2024-03-08T12:17:45.467Z,989.84
2024-03-08T12:18:44.844Z,989.90
2024-03-08T12:19:44.902Z,989.81
2024-03-08T12:20:44.865Z,989.83
2024-03-08T12:21:44.825Z,989.74
2024-03-08T12:22:44.859Z,989.69
2024-03-08T12:23:44.851Z,989.70
2024-03-08T12:24:44.813Z,989.61
2024-03-08T12:25:44.835Z,989.64
2024-03-08T12:26:44.796Z,989.60
2024-03-08T12:27:44.808Z,989.66
2024-03-08T12:28:47.587Z,989.68